createdAt,value
2023-04-18T00:08:29.021Z,60.03
2023-04-18T00:23:34.399Z,61.86
2023-04-18T00:38:37.032Z,62.14
2023-04-18T00:53:41.351Z,61.46
2023-04-18T01:08:44.815Z,61.42
2023-04-18T01:23:48.928Z,61.26
2023-04-18T01:38:51.508Z,62.10
2023-04-18T01:53:54.218Z,60.96
2023-04-18T02:08:56.986Z,61.80
2023-04-18T02:23:59.554Z,61.69
2023-04-18T02:39:02.094Z,60.64
2023-04-18T02:54:05.427Z,61.38
2023-04-18T03:09:08.154Z,60.73
2023-04-18T03:24:12.218Z,60.87
2023-04-18T03:39:15.064Z,60.92
2023-04-18T03:54:18.099Z,61.18
2023-04-18T04:09:20.710Z,61.28
2023-04-18T04:24:23.484Z,62.41
2023-04-18T04:39:25.968Z,61.74
2023-04-18T04:54:28.563Z,61.56
2023-04-18T05:09:31.142Z,62.39
2023-04-18T05:24:33.693Z,62.48
2023-04-18T05:39:36.645Z,61.43
2023-04-18T05:54:39.347Z,61.60
2023-04-18T06:09:42.085Z,61.75
2023-04-18T06:24:44.972Z,62.80
2023-04-18T06:39:47.576Z,64.27
2023-04-18T06:54:50.270Z,64.06
2023-04-18T07:09:53.975Z,64.49
2023-04-18T07:24:56.570Z,64.87
2023-04-18T07:39:59.378Z,65.09
2023-04-18T07:55:01.958Z,64.55
2023-04-18T08:10:05.344Z,63.85
2023-04-18T08:25:08.449Z,63.72
2023-04-18T08:40:11.256Z,62.88
2023-04-18T08:55:14.082Z,62.69
2023-04-18T09:10:32.636Z,62.51
2023-04-18T09:25:45.139Z,61.80
2023-04-18T09:41:07.342Z,60.95
2023-04-18T09:56:33.622Z,60.60
2023-04-18T10:11:36.800Z,62.13
2023-04-18T10:26:47.097Z,60.08
2023-04-18T10:41:51.186Z,60.22
2023-04-18T10:56:55.923Z,60.93
2023-04-18T11:12:07.436Z,61.89
2023-04-18T11:27:11.951Z,59.95
2023-04-18T11:42:14.799Z,60.81
2023-04-18T11:57:24.292Z,59.23
2023-04-18T12:12:27.155Z,61.19
2023-04-18T12:27:52.576Z,60.83
2023-04-18T12:42:56.092Z,58.98
2023-04-18T12:57:59.066Z,59.58
2023-04-18T13:13:01.959Z,60.43
2023-04-18T13:28:04.880Z,60.42
2023-04-18T13:43:07.706Z,61.14
2023-04-18T13:58:10.776Z,61.18
2023-04-18T14:13:13.646Z,60.69
2023-04-18T14:28:17.525Z,60.10
2023-04-18T14:43:20.433Z,59.51
2023-04-18T14:58:30.590Z,59.09
2023-04-18T15:13:34.938Z,59.36
2023-04-18T15:28:37.958Z,59.72
2023-04-18T15:43:41.899Z,61.11
2023-04-18T15:58:44.511Z,62.24
2023-04-18T16:13:49.142Z,59.10
2023-04-18T16:28:52.028Z,59.70
2023-04-18T16:43:54.716Z,62.36
2023-04-18T16:58:58.786Z,61.02
2023-04-18T17:14:01.893Z,59.80
2023-04-18T17:29:04.903Z,60.28
2023-04-18T17:44:08.338Z,63.28
2023-04-18T17:59:12.318Z,62.11
2023-04-18T18:14:16.691Z,61.74
2023-04-18T18:29:19.917Z,61.20
2023-04-18T18:44:22.968Z,60.89
2023-04-18T18:59:25.624Z,60.59
2023-04-18T19:14:28.180Z,60.42
2023-04-18T19:29:32.719Z,60.64
2023-04-18T19:44:35.824Z,60.76
2023-04-18T19:59:38.415Z,60.82
2023-04-18T20:14:41.098Z,60.78
2023-04-18T20:29:43.708Z,60.34
2023-04-18T20:44:46.900Z,60.66
2023-04-18T20:59:49.925Z,60.33
2023-04-18T21:14:52.447Z,59.89
2023-04-18T21:29:55.021Z,60.20
2023-04-18T21:44:57.653Z,60.84
2023-04-18T22:00:00.206Z,61.19
2023-04-18T22:15:04.336Z,61.71
2023-04-18T22:30:08.018Z,61.62
2023-04-18T22:45:10.859Z,61.82
2023-04-18T23:00:14.420Z,61.11
2023-04-18T23:15:17.525Z,61.20
2023-04-18T23:30:20.158Z,61.03
2023-04-18T23:45:24.515Z,61.46
